sensor_id;sensor_type;location;lat;lon;timestamp;P1;durP1;ratioP1;P2;durP2;ratioP2
46365;SDS011;32073;49.166;8.076;2022-07-29T00:01:50;3.63;;;1.20;;
46365;SDS011;32073;49.166;8.076;2022-07-29T00:05:52;5.03;;;1.20;;
46365;SDS011;32073;49.166;8.076;2022-07-29T00:09:53;2.90;;;1.33;;
46365;SDS011;32073;49.166;8.076;2022-07-29T00:13:53;4.30;;;1.17;;
46365;SDS011;32073;49.166;8.076;2022-07-29T00:17:54;2.70;;;0.90;;
46365;SDS011;32073;49.166;8.076;2022-07-29T00:21:55;1.63;;;1.15;;
46365;SDS011;32073;49.166;8.076;2022-07-29T00:25:55;2.13;;;1.23;;
46365;SDS011;32073;49.166;8.076;2022-07-29T00:29:56;4.18;;;1.35;;
46365;SDS011;32073;49.166;8.076;2022-07-29T00:33:57;1.73;;;1.05;;
46365;SDS011;32073;49.166;8.076;2022-07-29T00:37:57;3.53;;;1.20;;
46365;SDS011;32073;49.166;8.076;2022-07-29T00:41:58;2.03;;;0.90;;
46365;SDS011;32073;49.166;8.076;2022-07-29T00:46:02;2.10;;;1.30;;
46365;SDS011;32073;49.166;8.076;2022-07-29T00:50:04;1.90;;;1.25;;
46365;SDS011;32073;49.166;8.076;2022-07-29T00:54:07;3.05;;;1.27;;
46365;SDS011;32073;49.166;8.076;2022-07-29T00:58:08;4.25;;;1.38;;
46365;SDS011;32073;49.166;8.076;2022-07-29T01:02:08;3.05;;;1.25;;
46365;SDS011;32073;49.166;8.076;2022-07-29T01:06:09;2.17;;;1.15;;
46365;SDS011;32073;49.166;8.076;2022-07-29T01:10:10;2.78;;;1.13;;
46365;SDS011;32073;49.166;8.076;2022-07-29T01:14:14;4.18;;;1.67;;
46365;SDS011;32073;49.166;8.076;2022-07-29T01:31:31;6.30;;;1.33;;
46365;SDS011;32073;49.166;8.076;2022-07-29T01:35:44;2.95;;;1.52;;
46365;SDS011;32073;49.166;8.076;2022-07-29T01:39:46;2.53;;;1.20;;
46365;SDS011;32073;49.166;8.076;2022-07-29T01:43:49;2.33;;;1.15;;
46365;SDS011;32073;49.166;8.076;2022-07-29T01:52:05;2.08;;;1.30;;
46365;SDS011;32073;49.166;8.076;2022-07-29T01:56:13;1.65;;;1.25;;
46365;SDS011;32073;49.166;8.076;2022-07-29T02:00:17;2.28;;;1.40;;
46365;SDS011;32073;49.166;8.076;2022-07-29T02:04:18;1.60;;;0.85;;
46365;SDS011;32073;49.166;8.076;2022-07-29T02:08:20;1.85;;;1.35;;
46365;SDS011;32073;49.166;8.076;2022-07-29T02:12:21;2.35;;;1.30;;
46365;SDS011;32073;49.166;8.076;2022-07-29T02:16:24;4.93;;;1.20;;
46365;SDS011;32073;49.166;8.076;2022-07-29T02:20:29;2.90;;;1.27;;
46365;SDS011;32073;49.166;8.076;2022-07-29T02:24:31;1.77;;;1.20;;
46365;SDS011;32073;49.166;8.076;2022-07-29T02:28:33;10.15;;;1.60;;
46365;SDS011;32073;49.166;8.076;2022-07-29T02:32:35;2.22;;;1.20;;
46365;SDS011;32073;49.166;8.076;2022-07-29T02:36:37;2.10;;;1.27;;
46365;SDS011;32073;49.166;8.076;2022-07-29T02:40:39;3.40;;;1.58;;
46365;SDS011;32073;49.166;8.076;2022-07-29T02:44:42;6.50;;;1.20;;
46365;SDS011;32073;49.166;8.076;2022-07-29T02:48:48;1.67;;;1.20;;
46365;SDS011;32073;49.166;8.076;2022-07-29T02:53:07;2.33;;;1.10;;
46365;SDS011;32073;49.166;8.076;2022-07-29T02:57:18;2.67;;;1.07;;
46365;SDS011;32073;49.166;8.076;2022-07-29T03:01:25;2.95;;;1.50;;
46365;SDS011;32073;49.166;8.076;2022-07-29T03:05:30;2.38;;;1.40;;
46365;SDS011;32073;49.166;8.076;2022-07-29T03:09:32;2.17;;;1.10;;
46365;SDS011;32073;49.166;8.076;2022-07-29T03:13:33;2.05;;;1.30;;
46365;SDS011;32073;49.166;8.076;2022-07-29T03:17:35;1.33;;;1.10;;
46365;SDS011;32073;49.166;8.076;2022-07-29T03:21:38;1.88;;;1.20;;
46365;SDS011;32073;49.166;8.076;2022-07-29T03:25:39;4.53;;;1.10;;
46365;SDS011;32073;49.166;8.076;2022-07-29T03:29:39;2.53;;;1.40;;
46365;SDS011;32073;49.166;8.076;2022-07-29T03:33:40;1.35;;;0.98;;
46365;SDS011;32073;49.166;8.076;2022-07-29T03:37:41;3.72;;;1.67;;
46365;SDS011;32073;49.166;8.076;2022-07-29T03:41:41;3.78;;;1.33;;
46365;SDS011;32073;49.166;8.076;2022-07-29T03:45:48;3.90;;;1.42;;
46365;SDS011;32073;49.166;8.076;2022-07-29T03:49:54;2.83;;;1.48;;
46365;SDS011;32073;49.166;8.076;2022-07-29T03:54:00;3.13;;;1.40;;
46365;SDS011;32073;49.166;8.076;2022-07-29T03:58:03;2.92;;;1.48;;
46365;SDS011;32073;49.166;8.076;2022-07-29T04:02:04;3.17;;;1.55;;
46365;SDS011;32073;49.166;8.076;2022-07-29T04:06:06;1.55;;;1.30;;
46365;SDS011;32073;49.166;8.076;2022-07-29T04:10:07;1.90;;;1.30;;
46365;SDS011;32073;49.166;8.076;2022-07-29T04:14:08;2.28;;;1.25;;
46365;SDS011;32073;49.166;8.076;2022-07-29T04:18:09;3.25;;;1.65;;
46365;SDS011;32073;49.166;8.076;2022-07-29T04:22:10;4.45;;;1.40;;
46365;SDS011;32073;49.166;8.076;2022-07-29T04:26:10;1.90;;;1.27;;
46365;SDS011;32073;49.166;8.076;2022-07-29T04:30:11;3.08;;;1.70;;
46365;SDS011;32073;49.166;8.076;2022-07-29T04:34:12;4.82;;;1.70;;
46365;SDS011;32073;49.166;8.076;2022-07-29T04:38:13;4.30;;;1.17;;
46365;SDS011;32073;49.166;8.076;2022-07-29T04:42:13;4.25;;;1.40;;
46365;SDS011;32073;49.166;8.076;2022-07-29T04:46:14;2.30;;;1.52;;
46365;SDS011;32073;49.166;8.076;2022-07-29T04:50:15;2.17;;;1.52;;
46365;SDS011;32073;49.166;8.076;2022-07-29T04:54:15;5.22;;;1.70;;
46365;SDS011;32073;49.166;8.076;2022-07-29T04:58:16;1.83;;;1.42;;
46365;SDS011;32073;49.166;8.076;2022-07-29T05:02:17;4.35;;;1.90;;
46365;SDS011;32073;49.166;8.076;2022-07-29T05:06:18;3.78;;;1.60;;
46365;SDS011;32073;49.166;8.076;2022-07-29T05:10:18;3.35;;;1.52;;
46365;SDS011;32073;49.166;8.076;2022-07-29T05:14:19;4.43;;;1.70;;
46365;SDS011;32073;49.166;8.076;2022-07-29T05:18:20;1.88;;;1.60;;
46365;SDS011;32073;49.166;8.076;2022-07-29T05:22:20;2.88;;;1.48;;
46365;SDS011;32073;49.166;8.076;2022-07-29T05:26:21;8.30;;;1.60;;
46365;SDS011;32073;49.166;8.076;2022-07-29T05:30:24;3.08;;;1.77;;
46365;SDS011;32073;49.166;8.076;2022-07-29T05:34:25;1.60;;;1.30;;
46365;SDS011;32073;49.166;8.076;2022-07-29T05:38:26;3.78;;;1.50;;
46365;SDS011;32073;49.166;8.076;2022-07-29T05:42:26;1.83;;;1.13;;
46365;SDS011;32073;49.166;8.076;2022-07-29T05:46:27;4.07;;;1.67;;
46365;SDS011;32073;49.166;8.076;2022-07-29T05:50:28;1.83;;;1.40;;
46365;SDS011;32073;49.166;8.076;2022-07-29T05:54:28;3.05;;;1.73;;
46365;SDS011;32073;49.166;8.076;2022-07-29T05:58:29;2.50;;;1.63;;
46365;SDS011;32073;49.166;8.076;2022-07-29T06:02:30;3.70;;;1.55;;
46365;SDS011;32073;49.166;8.076;2022-07-29T06:06:32;1.95;;;1.55;;
46365;SDS011;32073;49.166;8.076;2022-07-29T06:10:34;5.80;;;1.77;;
46365;SDS011;32073;49.166;8.076;2022-07-29T06:14:35;3.03;;;1.40;;
46365;SDS011;32073;49.166;8.076;2022-07-29T06:18:37;2.50;;;1.58;;
46365;SDS011;32073;49.166;8.076;2022-07-29T06:22:38;2.17;;;1.48;;
46365;SDS011;32073;49.166;8.076;2022-07-29T06:26:39;2.72;;;1.63;;
46365;SDS011;32073;49.166;8.076;2022-07-29T06:30:40;2.92;;;1.40;;
46365;SDS011;32073;49.166;8.076;2022-07-29T06:34:41;1.77;;;1.67;;
46365;SDS011;32073;49.166;8.076;2022-07-29T06:38:41;2.45;;;1.60;;
46365;SDS011;32073;49.166;8.076;2022-07-29T06:42:42;3.13;;;1.58;;
46365;SDS011;32073;49.166;8.076;2022-07-29T06:46:44;1.67;;;1.50;;
46365;SDS011;32073;49.166;8.076;2022-07-29T06:50:46;2.22;;;1.67;;
46365;SDS011;32073;49.166;8.076;2022-07-29T06:54:47;2.47;;;1.63;;
46365;SDS011;32073;49.166;8.076;2022-07-29T06:58:48;1.75;;;1.30;;
46365;SDS011;32073;49.166;8.076;2022-07-29T07:02:48;2.72;;;1.40;;
46365;SDS011;32073;49.166;8.076;2022-07-29T07:06:49;2.50;;;1.70;;
46365;SDS011;32073;49.166;8.076;2022-07-29T07:10:50;1.65;;;1.55;;
46365;SDS011;32073;49.166;8.076;2022-07-29T07:14:52;4.28;;;1.70;;
46365;SDS011;32073;49.166;8.076;2022-07-29T07:18:53;2.50;;;1.38;;
46365;SDS011;32073;49.166;8.076;2022-07-29T07:22:53;3.65;;;1.88;;
46365;SDS011;32073;49.166;8.076;2022-07-29T07:26:54;4.75;;;1.92;;
46365;SDS011;32073;49.166;8.076;2022-07-29T07:30:55;2.67;;;1.60;;
46365;SDS011;32073;49.166;8.076;2022-07-29T07:34:55;5.65;;;1.88;;
46365;SDS011;32073;49.166;8.076;2022-07-29T07:38:56;2.75;;;1.70;;
46365;SDS011;32073;49.166;8.076;2022-07-29T07:42:57;2.83;;;1.70;;
46365;SDS011;32073;49.166;8.076;2022-07-29T07:46:57;3.10;;;1.65;;
46365;SDS011;32073;49.166;8.076;2022-07-29T07:50:58;4.28;;;1.95;;
46365;SDS011;32073;49.166;8.076;2022-07-29T07:54:59;4.60;;;1.85;;
46365;SDS011;32073;49.166;8.076;2022-07-29T07:59:00;2.10;;;1.70;;
46365;SDS011;32073;49.166;8.076;2022-07-29T08:03:00;5.75;;;2.13;;
46365;SDS011;32073;49.166;8.076;2022-07-29T08:07:02;2.15;;;1.60;;
46365;SDS011;32073;49.166;8.076;2022-07-29T08:11:03;5.55;;;1.80;;
46365;SDS011;32073;49.166;8.076;2022-07-29T08:15:03;2.92;;;1.90;;
46365;SDS011;32073;49.166;8.076;2022-07-29T08:19:07;2.38;;;1.73;;
46365;SDS011;32073;49.166;8.076;2022-07-29T08:23:08;1.92;;;1.70;;
46365;SDS011;32073;49.166;8.076;2022-07-29T08:27:09;3.78;;;1.80;;
46365;SDS011;32073;49.166;8.076;2022-07-29T08:31:11;2.58;;;1.67;;
46365;SDS011;32073;49.166;8.076;2022-07-29T08:35:13;6.47;;;1.80;;
46365;SDS011;32073;49.166;8.076;2022-07-29T08:39:14;3.05;;;1.45;;
46365;SDS011;32073;49.166;8.076;2022-07-29T08:43:14;2.42;;;1.50;;
46365;SDS011;32073;49.166;8.076;2022-07-29T08:47:15;4.13;;;1.73;;
46365;SDS011;32073;49.166;8.076;2022-07-29T08:51:18;3.17;;;1.75;;
46365;SDS011;32073;49.166;8.076;2022-07-29T08:55:21;4.15;;;1.55;;
46365;SDS011;32073;49.166;8.076;2022-07-29T08:59:22;1.77;;;1.25;;
46365;SDS011;32073;49.166;8.076;2022-07-29T09:03:25;2.72;;;1.50;;
46365;SDS011;32073;49.166;8.076;2022-07-29T09:07:31;3.70;;;1.83;;
46365;SDS011;32073;49.166;8.076;2022-07-29T09:11:32;2.42;;;1.60;;
46365;SDS011;32073;49.166;8.076;2022-07-29T09:15:34;4.65;;;1.65;;
46365;SDS011;32073;49.166;8.076;2022-07-29T09:19:35;2.67;;;1.50;;
46365;SDS011;32073;49.166;8.076;2022-07-29T09:23:37;3.20;;;1.30;;
46365;SDS011;32073;49.166;8.076;2022-07-29T09:27:39;2.78;;;1.65;;
46365;SDS011;32073;49.166;8.076;2022-07-29T09:31:42;4.13;;;1.90;;
46365;SDS011;32073;49.166;8.076;2022-07-29T09:40:27;2.17;;;1.37;;
46365;SDS011;32073;49.166;8.076;2022-07-29T09:44:40;1.35;;;1.20;;
46365;SDS011;32073;49.166;8.076;2022-07-29T09:48:43;3.85;;;1.80;;
46365;SDS011;32073;49.166;8.076;2022-07-29T09:52:45;3.83;;;1.60;;
46365;SDS011;32073;49.166;8.076;2022-07-29T09:56:52;2.67;;;1.40;;
46365;SDS011;32073;49.166;8.076;2022-07-29T10:00:56;3.35;;;1.65;;
46365;SDS011;32073;49.166;8.076;2022-07-29T10:04:57;4.68;;;1.42;;
46365;SDS011;32073;49.166;8.076;2022-07-29T10:09:09;1.30;;;1.15;;
46365;SDS011;32073;49.166;8.076;2022-07-29T10:13:12;2.30;;;1.60;;
46365;SDS011;32073;49.166;8.076;2022-07-29T10:17:14;2.00;;;1.52;;
46365;SDS011;32073;49.166;8.076;2022-07-29T10:21:16;3.15;;;1.67;;
46365;SDS011;32073;49.166;8.076;2022-07-29T10:25:17;1.20;;;1.10;;
46365;SDS011;32073;49.166;8.076;2022-07-29T10:29:18;1.83;;;1.45;;
46365;SDS011;32073;49.166;8.076;2022-07-29T10:33:29;4.78;;;1.27;;
46365;SDS011;32073;49.166;8.076;2022-07-29T10:37:52;1.83;;;1.60;;
46365;SDS011;32073;49.166;8.076;2022-07-29T10:42:35;2.10;;;1.40;;
46365;SDS011;32073;49.166;8.076;2022-07-29T10:46:41;2.40;;;1.40;;
46365;SDS011;32073;49.166;8.076;2022-07-29T10:50:52;3.00;;;1.38;;
46365;SDS011;32073;49.166;8.076;2022-07-29T10:55:04;1.83;;;1.42;;
46365;SDS011;32073;49.166;8.076;2022-07-29T11:21:02;1.73;;;1.10;;
46365;SDS011;32073;49.166;8.076;2022-07-29T11:25:16;4.45;;;1.30;;
46365;SDS011;32073;49.166;8.076;2022-07-29T11:29:21;3.58;;;1.80;;
46365;SDS011;32073;49.166;8.076;2022-07-29T11:33:32;2.15;;;1.50;;
46365;SDS011;32073;49.166;8.076;2022-07-29T11:37:33;3.53;;;1.33;;
46365;SDS011;32073;49.166;8.076;2022-07-29T11:41:34;1.50;;;1.40;;
46365;SDS011;32073;49.166;8.076;2022-07-29T11:45:46;1.65;;;1.13;;
46365;SDS011;32073;49.166;8.076;2022-07-29T11:49:47;1.95;;;1.38;;
46365;SDS011;32073;49.166;8.076;2022-07-29T11:53:49;2.22;;;1.40;;
46365;SDS011;32073;49.166;8.076;2022-07-29T11:57:57;2.72;;;1.30;;
46365;SDS011;32073;49.166;8.076;2022-07-29T12:01:59;1.58;;;1.40;;
46365;SDS011;32073;49.166;8.076;2022-07-29T12:06:00;2.70;;;1.25;;
46365;SDS011;32073;49.166;8.076;2022-07-29T12:10:02;4.30;;;1.40;;
46365;SDS011;32073;49.166;8.076;2022-07-29T12:14:06;2.50;;;1.33;;
46365;SDS011;32073;49.166;8.076;2022-07-29T12:18:14;2.85;;;1.17;;
46365;SDS011;32073;49.166;8.076;2022-07-29T12:22:26;1.48;;;1.38;;
46365;SDS011;32073;49.166;8.076;2022-07-29T12:26:32;3.40;;;1.10;;
46365;SDS011;32073;49.166;8.076;2022-07-29T12:30:34;2.63;;;1.08;;
46365;SDS011;32073;49.166;8.076;2022-07-29T12:34:42;2.00;;;1.10;;
46365;SDS011;32073;49.166;8.076;2022-07-29T12:38:43;6.18;;;1.30;;
46365;SDS011;32073;49.166;8.076;2022-07-29T12:47:24;2.63;;;0.98;;
46365;SDS011;32073;49.166;8.076;2022-07-29T12:51:28;1.77;;;1.00;;
46365;SDS011;32073;49.166;8.076;2022-07-29T12:55:47;1.30;;;0.90;;
46365;SDS011;32073;49.166;8.076;2022-07-29T13:00:02;1.20;;;0.80;;
46365;SDS011;32073;49.166;8.076;2022-07-29T13:04:11;1.95;;;0.88;;
46365;SDS011;32073;49.166;8.076;2022-07-29T13:08:28;1.23;;;0.80;;
46365;SDS011;32073;49.166;8.076;2022-07-29T13:12:29;3.13;;;0.93;;
46365;SDS011;32073;49.166;8.076;2022-07-29T13:16:30;2.13;;;1.13;;
46365;SDS011;32073;49.166;8.076;2022-07-29T13:20:31;1.40;;;0.93;;
46365;SDS011;32073;49.166;8.076;2022-07-29T13:24:32;2.42;;;0.90;;
46365;SDS011;32073;49.166;8.076;2022-07-29T13:28:34;1.85;;;0.90;;
46365;SDS011;32073;49.166;8.076;2022-07-29T13:32:35;2.42;;;0.90;;
46365;SDS011;32073;49.166;8.076;2022-07-29T13:36:39;4.90;;;0.90;;
46365;SDS011;32073;49.166;8.076;2022-07-29T13:40:40;0.98;;;0.80;;
46365;SDS011;32073;49.166;8.076;2022-07-29T13:44:41;0.98;;;0.77;;
46365;SDS011;32073;49.166;8.076;2022-07-29T13:48:42;6.18;;;0.77;;
46365;SDS011;32073;49.166;8.076;2022-07-29T13:52:42;9.18;;;1.30;;
46365;SDS011;32073;49.166;8.076;2022-07-29T13:56:43;1.05;;;0.70;;
46365;SDS011;32073;49.166;8.076;2022-07-29T14:00:44;1.25;;;0.70;;
46365;SDS011;32073;49.166;8.076;2022-07-29T14:04:46;3.60;;;0.63;;
46365;SDS011;32073;49.166;8.076;2022-07-29T14:08:47;1.48;;;0.88;;
46365;SDS011;32073;49.166;8.076;2022-07-29T14:12:48;1.40;;;0.75;;
46365;SDS011;32073;49.166;8.076;2022-07-29T14:16:48;1.60;;;0.75;;
46365;SDS011;32073;49.166;8.076;2022-07-29T14:20:49;2.42;;;0.63;;
46365;SDS011;32073;49.166;8.076;2022-07-29T14:24:50;1.58;;;0.68;;
46365;SDS011;32073;49.166;8.076;2022-07-29T14:28:52;1.83;;;0.80;;
46365;SDS011;32073;49.166;8.076;2022-07-29T14:32:52;2.28;;;0.85;;
46365;SDS011;32073;49.166;8.076;2022-07-29T14:36:53;1.13;;;0.70;;
46365;SDS011;32073;49.166;8.076;2022-07-29T14:40:55;4.30;;;0.70;;
46365;SDS011;32073;49.166;8.076;2022-07-29T14:44:55;2.92;;;0.82;;
46365;SDS011;32073;49.166;8.076;2022-07-29T14:48:56;1.50;;;0.80;;
46365;SDS011;32073;49.166;8.076;2022-07-29T14:52:57;0.65;;;0.60;;
46365;SDS011;32073;49.166;8.076;2022-07-29T14:56:59;1.25;;;0.80;;
46365;SDS011;32073;49.166;8.076;2022-07-29T15:00:59;1.67;;;0.63;;
46365;SDS011;32073;49.166;8.076;2022-07-29T15:05:01;5.05;;;0.70;;
46365;SDS011;32073;49.166;8.076;2022-07-29T15:09:01;2.13;;;0.73;;
46365;SDS011;32073;49.166;8.076;2022-07-29T15:13:02;1.30;;;1.00;;
46365;SDS011;32073;49.166;8.076;2022-07-29T15:17:03;1.15;;;0.57;;
46365;SDS011;32073;49.166;8.076;2022-07-29T15:21:04;0.90;;;0.80;;
46365;SDS011;32073;49.166;8.076;2022-07-29T15:25:06;1.52;;;0.63;;
46365;SDS011;32073;49.166;8.076;2022-07-29T15:29:07;12.32;;;1.17;;
46365;SDS011;32073;49.166;8.076;2022-07-29T15:33:08;3.47;;;0.80;;
46365;SDS011;32073;49.166;8.076;2022-07-29T15:37:09;2.50;;;0.60;;
46365;SDS011;32073;49.166;8.076;2022-07-29T15:41:14;0.82;;;0.68;;
46365;SDS011;32073;49.166;8.076;2022-07-29T15:45:15;0.80;;;0.50;;
46365;SDS011;32073;49.166;8.076;2022-07-29T15:49:15;1.33;;;0.50;;
46365;SDS011;32073;49.166;8.076;2022-07-29T15:53:16;1.25;;;0.50;;
46365;SDS011;32073;49.166;8.076;2022-07-29T15:57:17;0.57;;;0.47;;
46365;SDS011;32073;49.166;8.076;2022-07-29T16:01:17;0.93;;;0.57;;
46365;SDS011;32073;49.166;8.076;2022-07-29T16:05:18;1.58;;;0.52;;
46365;SDS011;32073;49.166;8.076;2022-07-29T16:09:19;1.90;;;0.80;;
46365;SDS011;32073;49.166;8.076;2022-07-29T16:13:20;1.98;;;0.75;;
46365;SDS011;32073;49.166;8.076;2022-07-29T16:17:21;1.95;;;0.60;;
46365;SDS011;32073;49.166;8.076;2022-07-29T16:21:21;1.20;;;0.60;;
46365;SDS011;32073;49.166;8.076;2022-07-29T16:25:22;3.05;;;0.73;;
46365;SDS011;32073;49.166;8.076;2022-07-29T16:29:23;1.70;;;0.70;;
46365;SDS011;32073;49.166;8.076;2022-07-29T16:33:24;1.58;;;0.80;;
46365;SDS011;32073;49.166;8.076;2022-07-29T16:37:25;1.52;;;0.80;;
46365;SDS011;32073;49.166;8.076;2022-07-29T16:41:25;1.88;;;1.48;;
46365;SDS011;32073;49.166;8.076;2022-07-29T16:45:28;1.00;;;0.80;;
46365;SDS011;32073;49.166;8.076;2022-07-29T16:49:29;2.25;;;0.93;;
46365;SDS011;32073;49.166;8.076;2022-07-29T16:53:29;1.85;;;0.70;;
46365;SDS011;32073;49.166;8.076;2022-07-29T16:57:31;1.45;;;0.70;;
46365;SDS011;32073;49.166;8.076;2022-07-29T17:01:31;2.45;;;0.88;;
46365;SDS011;32073;49.166;8.076;2022-07-29T17:05:32;1.42;;;0.90;;
46365;SDS011;32073;49.166;8.076;2022-07-29T17:09:33;1.42;;;0.77;;
46365;SDS011;32073;49.166;8.076;2022-07-29T17:13:34;2.33;;;0.60;;
46365;SDS011;32073;49.166;8.076;2022-07-29T17:17:34;1.58;;;0.73;;
46365;SDS011;32073;49.166;8.076;2022-07-29T17:21:35;1.50;;;0.85;;
46365;SDS011;32073;49.166;8.076;2022-07-29T17:25:36;1.15;;;0.82;;
46365;SDS011;32073;49.166;8.076;2022-07-29T17:29:37;2.50;;;0.90;;
46365;SDS011;32073;49.166;8.076;2022-07-29T17:33:38;4.70;;;1.05;;
46365;SDS011;32073;49.166;8.076;2022-07-29T17:37:39;1.05;;;0.80;;
46365;SDS011;32073;49.166;8.076;2022-07-29T17:41:39;2.90;;;0.88;;
46365;SDS011;32073;49.166;8.076;2022-07-29T17:45:40;0.85;;;0.70;;
46365;SDS011;32073;49.166;8.076;2022-07-29T17:49:41;1.73;;;0.90;;
46365;SDS011;32073;49.166;8.076;2022-07-29T17:53:43;6.45;;;1.52;;
46365;SDS011;32073;49.166;8.076;2022-07-29T17:57:43;1.67;;;0.82;;
46365;SDS011;32073;49.166;8.076;2022-07-29T18:01:44;1.83;;;0.85;;
46365;SDS011;32073;49.166;8.076;2022-07-29T18:05:45;1.98;;;1.02;;
46365;SDS011;32073;49.166;8.076;2022-07-29T18:09:45;1.88;;;0.75;;
46365;SDS011;32073;49.166;8.076;2022-07-29T18:13:46;1.52;;;0.95;;
46365;SDS011;32073;49.166;8.076;2022-07-29T18:17:47;2.45;;;1.10;;
46365;SDS011;32073;49.166;8.076;2022-07-29T18:21:48;2.35;;;1.02;;
46365;SDS011;32073;49.166;8.076;2022-07-29T18:25:49;1.88;;;1.02;;
46365;SDS011;32073;49.166;8.076;2022-07-29T18:29:50;2.40;;;1.38;;
46365;SDS011;32073;49.166;8.076;2022-07-29T18:33:52;4.07;;;1.30;;
46365;SDS011;32073;49.166;8.076;2022-07-29T18:37:53;1.75;;;0.90;;
46365;SDS011;32073;49.166;8.076;2022-07-29T18:41:54;0.80;;;0.75;;
46365;SDS011;32073;49.166;8.076;2022-07-29T18:45:55;4.85;;;1.15;;
46365;SDS011;32073;49.166;8.076;2022-07-29T18:49:56;1.27;;;1.00;;
46365;SDS011;32073;49.166;8.076;2022-07-29T18:53:56;1.65;;;0.90;;
46365;SDS011;32073;49.166;8.076;2022-07-29T18:57:57;1.67;;;1.10;;
46365;SDS011;32073;49.166;8.076;2022-07-29T19:01:58;2.42;;;1.02;;
46365;SDS011;32073;49.166;8.076;2022-07-29T19:05:58;3.40;;;1.10;;
46365;SDS011;32073;49.166;8.076;2022-07-29T19:10:00;1.63;;;1.10;;
46365;SDS011;32073;49.166;8.076;2022-07-29T19:14:02;4.60;;;1.30;;
46365;SDS011;32073;49.166;8.076;2022-07-29T19:18:04;3.55;;;1.30;;
46365;SDS011;32073;49.166;8.076;2022-07-29T19:22:06;4.38;;;1.30;;
46365;SDS011;32073;49.166;8.076;2022-07-29T19:26:06;2.95;;;1.27;;
46365;SDS011;32073;49.166;8.076;2022-07-29T19:30:07;2.15;;;1.35;;
46365;SDS011;32073;49.166;8.076;2022-07-29T19:34:08;1.85;;;1.30;;
46365;SDS011;32073;49.166;8.076;2022-07-29T19:38:09;1.30;;;1.20;;
46365;SDS011;32073;49.166;8.076;2022-07-29T19:42:10;2.40;;;1.42;;
46365;SDS011;32073;49.166;8.076;2022-07-29T19:46:11;4.65;;;1.30;;
46365;SDS011;32073;49.166;8.076;2022-07-29T19:50:12;2.13;;;1.17;;
46365;SDS011;32073;49.166;8.076;2022-07-29T19:54:13;3.13;;;1.30;;
46365;SDS011;32073;49.166;8.076;2022-07-29T19:58:14;2.38;;;1.30;;
46365;SDS011;32073;49.166;8.076;2022-07-29T20:02:15;2.83;;;1.60;;
46365;SDS011;32073;49.166;8.076;2022-07-29T20:06:16;4.53;;;1.52;;
46365;SDS011;32073;49.166;8.076;2022-07-29T20:10:17;4.72;;;1.73;;
46365;SDS011;32073;49.166;8.076;2022-07-29T20:14:17;2.67;;;1.65;;
46365;SDS011;32073;49.166;8.076;2022-07-29T20:18:18;2.47;;;1.40;;
46365;SDS011;32073;49.166;8.076;2022-07-29T20:22:19;3.30;;;1.60;;
46365;SDS011;32073;49.166;8.076;2022-07-29T20:26:20;3.00;;;1.65;;
46365;SDS011;32073;49.166;8.076;2022-07-29T20:30:23;2.80;;;1.55;;
46365;SDS011;32073;49.166;8.076;2022-07-29T20:34:24;2.85;;;1.80;;
46365;SDS011;32073;49.166;8.076;2022-07-29T20:38:24;2.60;;;1.58;;
46365;SDS011;32073;49.166;8.076;2022-07-29T20:42:25;2.78;;;1.80;;
46365;SDS011;32073;49.166;8.076;2022-07-29T20:46:26;2.58;;;1.50;;
46365;SDS011;32073;49.166;8.076;2022-07-29T20:50:26;1.85;;;1.50;;
46365;SDS011;32073;49.166;8.076;2022-07-29T20:54:27;2.05;;;1.60;;
46365;SDS011;32073;49.166;8.076;2022-07-29T20:58:28;3.05;;;1.52;;
46365;SDS011;32073;49.166;8.076;2022-07-29T21:02:29;2.50;;;1.73;;
46365;SDS011;32073;49.166;8.076;2022-07-29T21:06:30;2.10;;;1.67;;
46365;SDS011;32073;49.166;8.076;2022-07-29T21:10:31;3.85;;;2.00;;
46365;SDS011;32073;49.166;8.076;2022-07-29T21:14:31;2.40;;;1.77;;
46365;SDS011;32073;49.166;8.076;2022-07-29T21:18:34;2.53;;;1.77;;
46365;SDS011;32073;49.166;8.076;2022-07-29T21:22:36;4.55;;;1.58;;
46365;SDS011;32073;49.166;8.076;2022-07-29T21:26:37;5.10;;;1.98;;
46365;SDS011;32073;49.166;8.076;2022-07-29T21:30:37;1.90;;;1.60;;
46365;SDS011;32073;49.166;8.076;2022-07-29T21:34:38;2.55;;;1.70;;
46365;SDS011;32073;49.166;8.076;2022-07-29T21:38:39;5.03;;;2.00;;
46365;SDS011;32073;49.166;8.076;2022-07-29T21:42:40;5.22;;;1.77;;
46365;SDS011;32073;49.166;8.076;2022-07-29T21:46:41;3.58;;;2.00;;
46365;SDS011;32073;49.166;8.076;2022-07-29T21:50:41;4.13;;;1.98;;
46365;SDS011;32073;49.166;8.076;2022-07-29T21:54:42;3.33;;;1.70;;
46365;SDS011;32073;49.166;8.076;2022-07-29T21:58:43;4.57;;;2.10;;
46365;SDS011;32073;49.166;8.076;2022-07-29T22:02:44;4.13;;;2.13;;
46365;SDS011;32073;49.166;8.076;2022-07-29T22:06:44;2.30;;;1.90;;
46365;SDS011;32073;49.166;8.076;2022-07-29T22:10:45;2.53;;;1.90;;
46365;SDS011;32073;49.166;8.076;2022-07-29T22:14:46;4.90;;;2.40;;
46365;SDS011;32073;49.166;8.076;2022-07-29T22:18:46;4.63;;;2.17;;
46365;SDS011;32073;49.166;8.076;2022-07-29T22:22:47;3.22;;;1.90;;
46365;SDS011;32073;49.166;8.076;2022-07-29T22:26:48;2.95;;;1.88;;
46365;SDS011;32073;49.166;8.076;2022-07-29T22:30:49;2.22;;;1.83;;
46365;SDS011;32073;49.166;8.076;2022-07-29T22:34:49;5.93;;;2.33;;
46365;SDS011;32073;49.166;8.076;2022-07-29T22:38:50;7.07;;;2.17;;
46365;SDS011;32073;49.166;8.076;2022-07-29T22:42:51;3.85;;;1.95;;
46365;SDS011;32073;49.166;8.076;2022-07-29T22:46:51;2.13;;;1.83;;
46365;SDS011;32073;49.166;8.076;2022-07-29T22:50:52;3.35;;;1.90;;
46365;SDS011;32073;49.166;8.076;2022-07-29T22:54:53;2.70;;;1.80;;
46365;SDS011;32073;49.166;8.076;2022-07-29T22:58:53;3.45;;;2.03;;
46365;SDS011;32073;49.166;8.076;2022-07-29T23:02:54;5.40;;;2.00;;
46365;SDS011;32073;49.166;8.076;2022-07-29T23:06:55;3.25;;;1.83;;
46365;SDS011;32073;49.166;8.076;2022-07-29T23:10:56;5.18;;;1.80;;
46365;SDS011;32073;49.166;8.076;2022-07-29T23:14:57;4.55;;;1.70;;
46365;SDS011;32073;49.166;8.076;2022-07-29T23:18:58;1.80;;;1.40;;
46365;SDS011;32073;49.166;8.076;2022-07-29T23:22:58;4.63;;;1.80;;
46365;SDS011;32073;49.166;8.076;2022-07-29T23:26:59;2.50;;;1.55;;
46365;SDS011;32073;49.166;8.076;2022-07-29T23:31:00;2.78;;;1.92;;
46365;SDS011;32073;49.166;8.076;2022-07-29T23:35:00;4.32;;;1.70;;
46365;SDS011;32073;49.166;8.076;2022-07-29T23:39:01;2.20;;;1.42;;
46365;SDS011;32073;49.166;8.076;2022-07-29T23:43:02;3.08;;;1.90;;
46365;SDS011;32073;49.166;8.076;2022-07-29T23:47:03;2.08;;;1.50;;
46365;SDS011;32073;49.166;8.076;2022-07-29T23:51:04;2.38;;;1.40;;
46365;SDS011;32073;49.166;8.076;2022-07-29T23:55:05;3.25;;;1.27;;
46365;SDS011;32073;49.166;8.076;2022-07-29T23:59:06;2.67;;;1.50;;
